Station: Keith West

  Atmospheric Gas Attenuation - ITU Rec 676-11   --------------- db/100km ---------------
Date Time Temp RH % AH g/m3 Dew Point Wind Direction Speed kph Gust kph Barometer mB Rainfall Since 9am 24GHz 47GHz 76GHz 122GHz 134GHz 241GHz
15 00:30 8.2 96 8.04 7.6 15 19 1017.5 10 18.7 26.8 40.5 106.3 98.3 337.2
15 00:20 8.1 96 7.99 7.5 17 19 1017.5 10 18.5 26.7 40.4 105.8 97.7 335.2
15 00:10 8.1 96 7.99 7.5 13 17 1017.7 10 18.5 26.7 40.4 105.9 97.7 335.3
15 00:00 8.2 96 8.04 7.6 11 13 1017.7 10 18.7 26.8 40.5 106.3 98.3 337.3
14 23:50 8.1 96 7.99 7.5 13 15 1017.7 9.8 18.5 26.7 40.4 105.9 97.7 335.3
14 23:40 8.2 96 8.04 7.6 17 20 1017.7 9.8 18.7 26.8 40.5 106.3 98.3 337.3
14 23:30 8.1 96 7.99 7.5 19 22 1017.6 9.8 18.5 26.7 40.4 105.8 97.7 335.2
14 23:20 8.2 96 8.04 7.6 15 17 1017.6 9.8 18.7 26.8 40.5 106.3 98.3 337.3
14 23:10 8.2 96 8.04 7.6 19 22 1017.5 9.8 18.7 26.8 40.5 106.3 98.3 337.2
14 23:00 8.2 96 8.04 7.6 17 20 1017.5 9.8 18.7 26.8 40.5 106.3 98.3 337.2
14 22:50 8.2 96 8.04 7.6 19 24 1017.5 9.8 18.7 26.8 40.5 106.3 98.3 337.2
14 22:40 8.2 96 8.04 7.6 19 22 1017.5 9.8 18.7 26.8 40.5 106.3 98.3 337.2
14 22:30 8.2 96 8.04 7.6 20 22 1017.4 9.8 18.7 26.8 40.5 106.3 98.3 337.2
14 22:20 8.3 96 8.09 7.7 15 17 1017.4 9.8 18.8 26.8 40.7 106.7 98.8 339.2
14 22:10 8.2 96 8.04 7.6 19 22 1017.4 9.8 18.7 26.8 40.5 106.3 98.3 337.2
14 22:00 8.3 96 8.09 7.7 15 17 1017.4 9.8 18.8 26.8 40.7 106.7 98.8 339.2
14 21:50 8.2 96 8.04 7.6 20 22 1017.4 9.8 18.7 26.8 40.5 106.3 98.3 337.2
14 21:40 8.2 96 8.04 7.6 17 20 1017.5 9.8 18.7 26.8 40.5 106.3 98.3 337.2
14 21:30 8.2 96 8.04 7.6 19 26 1017.4 9.8 18.7 26.8 40.5 106.3 98.3 337.2
14 21:20 8.3 96 8.09 7.7 19 20 1017.4 9.8 18.8 26.8 40.7 106.7 98.8 339.2
14 21:10 8.3 96 8.09 7.7 13 17 1017.3 9.8 18.8 26.8 40.7 106.7 98.8 339.2
14 21:00 8.3 96 8.09 7.7 17 20 1017.2 9.8 18.8 26.8 40.7 106.7 98.8 339.2
14 20:50 8.3 96 8.09 7.7 22 24 1017.1 9.6 18.8 26.8 40.7 106.7 98.8 339.1
14 20:40 8.3 96 8.09 7.7 20 24 1017.2 9.6 18.8 26.8 40.7 106.7 98.8 339.2
14 20:30 8.4 96 8.15 7.8 17 17 1017.3 9.6 18.9 26.9 40.9 107.2 99.5 341.7
14 20:20 8.4 96 8.15 7.8 17 20 1017.3 9.6 18.9 26.9 40.9 107.2 99.5 341.7
14 20:10 8.5 96 8.2 7.9 17 19 1017.2 9.6 19.0 27.0 41.0 107.6 100.1 343.7
14 20:00 8.5 96 8.2 7.9 17 20 1017.1 9.6 19.0 27.0 41.0 107.6 100.1 343.7
14 19:50 8.4 95 8.06 7.6 15 17 1017 9.6 18.7 26.7 40.5 106.2 98.3 337.2
14 19:40 8.4 96 8.15 7.8 28 32 1016.8 9.6 18.9 26.9 40.9 107.2 99.5 341.6
14 19:30 8.5 96 8.2 7.9 22 30 1016.8 9.6 19.0 26.9 41.0 107.6 100.1 343.6
14 19:20 8.5 96 8.2 7.9 20 22 1016.7 9.4 19.0 26.9 41.0 107.6 100.1 343.6
14 19:10 8.5 96 8.2 7.9 20 24 1016.6 9.4 19.0 26.9 41.0 107.6 100.1 343.5
14 19:00 8.5 96 8.2 7.9 20 24 1016.4 9.4 19.0 26.9 41.0 107.6 100.0 343.5
14 18:50 8.5 96 8.2 7.9 20 22 1016.3 9.4 19.0 26.9 41.0 107.5 100.0 343.4
14 18:40 8.5 96 8.2 7.9 26 32 1016.2 9.4 19.0 26.9 41.0 107.5 100.0 343.4
14 18:30 8.5 96 8.2 7.9 20 26 1016.1 9.2 19.0 26.9 41.0 107.5 100.0 343.4
14 18:20 8.5 96 8.2 7.9 20 24 1016.1 9.2 19.0 26.9 41.0 107.5 100.0 343.4
14 18:10 8.4 96 8.15 7.8 26 28 1015.9 9.2 18.9 26.9 40.8 107.1 99.4 341.3
14 18:00 8.4 96 8.15 7.8 22 30 1015.6 9.2 18.9 26.8 40.8 107.0 99.4 341.2
14 17:50 8.4 96 8.15 7.8 24 28 1015.5 8.8 18.9 26.8 40.8 107.0 99.4 341.2
14 17:40 8.5 95 8.11 7.7 22 30 1015.4 8.6 18.8 26.7 40.6 106.4 98.7 338.8
14 17:30 8.4 95 8.06 7.6 26 28 1015.3 8.2 18.7 26.7 40.4 106.0 98.1 336.7
14 17:20 8.5 95 8.11 7.7 20 22 1015.3 8 18.8 26.7 40.6 106.4 98.7 338.8
14 17:10 8.5 95 8.11 7.7 19 22 1015.1 8 18.8 26.7 40.6 106.4 98.7 338.7
14 17:00 8.5 95 8.11 7.7 22 30 1014.9 8 18.8 26.7 40.5 106.4 98.7 338.6
14 16:50 8.5 95 8.11 7.7 20 26 1014.9 8 18.8 26.7 40.5 106.4 98.7 338.6
14 16:40 8.6 95 8.17 7.8 24 26 1014.8 8 18.9 26.8 40.7 106.9 99.4 341.1
14 16:30 8.6 95 8.17 7.8 26 33 1014.6 8 18.9 26.8 40.7 106.9 99.3 341.1
14 16:20 8.6 95 8.17 7.8 22 26 1014.7 8 18.9 26.8 40.7 106.9 99.3 341.1
14 16:10 8.6 95 8.17 7.8 22 26 1014.6 8 18.9 26.8 40.7 106.9 99.3 341.1
14 16:00 8.6 95 8.17 7.8 22 26 1014.5 8 18.9 26.8 40.7 106.9 99.3 341.0
14 15:50 8.7 95 8.22 7.9 19 22 1014.5 8 19.0 26.8 40.9 107.3 99.9 343.0
14 15:40 8.7 95 8.22 7.9 24 26 1014.4 8 19.0 26.8 40.9 107.3 99.9 343.0
14 15:30 8.8 95 8.27 8 22 24 1014.4 8 19.1 26.9 41.0 107.7 100.5 345.0
14 15:20 8.7 95 8.22 7.9 26 30 1014.4 8 19.0 26.8 40.9 107.3 99.9 343.0
14 15:10 8.8 95 8.27 8 19 22 1014.5 8 19.1 26.9 41.1 107.7 100.5 345.0
14 15:00 8.7 95 8.22 7.9 20 26 1014.4 8 19.0 26.8 40.9 107.3 99.9 343.0
14 14:50 8.7 95 8.22 7.9 22 24 1014.4 8 19.0 26.8 40.9 107.3 99.9 343.0
14 14:40 8.8 95 8.27 8 13 17 1014.4 8 19.1 26.9 41.0 107.7 100.5 345.0
14 14:30 8.8 95 8.27 8 24 26 1014.3 8 19.1 26.9 41.0 107.7 100.5 345.0
14 14:20 8.9 95 8.32 8.1 15 17 1014.4 8 19.2 26.9 41.2 108.1 101.0 347.0
14 14:10 8.8 95 8.27 8 20 20 1014.4 8 19.1 26.9 41.0 107.7 100.5 345.0
14 14:00 8.8 95 8.27 8 20 26 1014.5 8 19.1 26.9 41.1 107.7 100.5 345.0
14 13:50 8.8 95 8.27 8 17 19 1014.6 8 19.1 26.9 41.1 107.7 100.5 345.1
14 13:40 8.8 95 8.27 8 17 20 1014.6 8 19.1 26.9 41.1 107.7 100.5 345.1
14 13:30 8.8 95 8.27 8 19 22 1014.6 8 19.1 26.9 41.1 107.7 100.5 345.1
14 13:20 8.8 95 8.27 8 17 17 1014.7 8 19.1 26.9 41.1 107.8 100.5 345.1
14 13:10 8.8 95 8.27 8 15 17 1014.7 7.8 19.1 26.9 41.1 107.8 100.5 345.1
14 13:00 8.7 95 8.22 7.9 17 22 1014.8 7 19.0 26.8 40.9 107.3 99.9 343.1
14 12:50 8.7 95 8.22 7.9 17 19 1014.9 6.2 19.0 26.8 40.9 107.3 99.9 343.1
14 12:40 8.6 95 8.17 7.8 17 17 1015 6 18.9 26.8 40.8 106.9 99.4 341.2
14 12:30 8.6 95 8.17 7.8 19 22 1015.1 5.6 18.9 26.8 40.8 106.9 99.4 341.2
14 12:20 8.5 95 8.11 7.7 17 19 1015.2 5.6 18.8 26.7 40.6 106.4 98.7 338.7
14 12:10 8.5 95 8.11 7.7 19 22 1015.3 5.4 18.8 26.7 40.6 106.4 98.7 338.8
14 12:00 8.4 95 8.06 7.6 19 26 1015.4 5.2 18.7 26.7 40.4 106.0 98.1 336.8
14 11:50 8.4 95 8.06 7.6 19 22 1015.6 5.2 18.7 26.7 40.4 106.0 98.1 336.8
14 11:40 8.4 95 8.06 7.6 19 20 1015.7 5.2 18.7 26.7 40.4 106.0 98.1 336.9
14 11:30 8.4 96 8.15 7.8 20 24 1015.7 5.2 18.9 26.8 40.8 107.0 99.4 341.3
14 11:20 8.3 95 8.01 7.5 19 22 1015.9 5.2 18.6 26.6 40.3 105.6 97.6 334.9
14 11:10 8.3 95 8.01 7.5 17 20 1016.1 5.2 18.6 26.7 40.3 105.6 97.6 334.9
14 11:00 8.3 95 8.01 7.5 20 24 1016.2 5.2 18.6 26.7 40.3 105.7 97.6 335.0
14 10:50 8.3 95 8.01 7.5 17 20 1016.3 5.2 18.6 26.7 40.3 105.7 97.6 335.0
14 10:40 8.3 95 8.01 7.5 19 22 1016.2 5.2 18.6 26.7 40.3 105.7 97.6 335.0
14 10:30 8.2 95 7.96 7.4 22 28 1016.3 5 18.5 26.6 40.1 105.2 97.1 333.0
14 10:20 8.2 95 7.96 7.4 20 22 1016.4 4.8 18.5 26.6 40.1 105.2 97.1 333.0
14 10:10 8.2 95 7.96 7.4 22 26 1016.5 4.4 18.5 26.6 40.1 105.3 97.1 333.0
14 10:00 8.1 95 7.91 7.3 20 24 1016.5 3.8 18.4 26.6 40.0 104.8 96.5 331.0
14 09:50 8.1 95 7.91 7.3 26 30 1016.5 3.2 18.4 26.6 40.0 104.8 96.5 331.0
14 09:40 8.1 95 7.91 7.3 26 30 1016.5 2.6 18.4 26.6 40.0 104.8 96.5 331.0
14 09:30 8.2 95 7.96 7.4 22 26 1016.4 1.8 18.5 26.6 40.1 105.2 97.1 333.0
14 09:20 8.1 95 7.91 7.3 24 26 1016.3 1.2 18.4 26.6 40.0 104.8 96.5 331.0
14 09:10 8.1 95 7.91 7.3 22 28 1016.3 0.6 18.4 26.6 40.0 104.8 96.5 331.0
14 09:00 8.1 94 7.82 7.2 22 28 1016.4 0 18.2 26.4 39.6 103.8 95.2 326.6
14 08:50 8.1 94 7.82 7.2 20 24 1016.4 9.4 18.2 26.4 39.6 103.8 95.2 326.6
14 08:40 8 94 7.77 7.1 26 30 1016.3 9.2 18.1 26.3 39.4 103.4 94.7 324.6
14 08:30 8 94 7.77 7.1 22 30 1016.3 9.2 18.1 26.3 39.4 103.4 94.7 324.6
14 08:20 8 94 7.77 7.1 22 28 1016.2 9 18.1 26.3 39.4 103.3 94.7 324.5
14 08:10 8 95 7.86 7.2 28 32 1016.3 9 18.3 26.5 39.8 104.4 95.9 329.0
14 08:00 8.1 95 7.91 7.3 20 26 1016.3 8.6 18.4 26.6 40.0 104.8 96.5 331.0

Last Refresh: 15-Jun-2024 00:38:34

Bureau of Meteorology